createdAt,value
2023-01-25T00:00:31.790Z,32.20
2023-01-25T00:02:58.506Z,28.13
2023-01-25T00:05:25.335Z,30.43
2023-01-25T00:07:52.068Z,34.57
2023-01-25T00:10:19.206Z,29.03
2023-01-25T00:12:45.921Z,35.70
2023-01-25T00:15:12.650Z,35.10
2023-01-25T00:17:39.373Z,32.03
2023-01-25T00:20:07.061Z,33.23
2023-01-25T00:22:34.062Z,32.77
2023-01-25T00:25:00.694Z,31.70
2023-01-25T00:27:27.529Z,33.63
2023-01-25T00:29:54.213Z,30.60
2023-01-25T00:32:20.990Z,31.47
2023-01-25T00:34:51.915Z,31.30
2023-01-25T00:37:21.575Z,33.47
2023-01-25T00:39:48.486Z,32.70
2023-01-25T00:42:17.112Z,31.33
2023-01-25T00:44:43.922Z,33.17
2023-01-25T00:47:11.446Z,29.80
2023-01-25T00:49:39.899Z,29.57
2023-01-25T00:52:07.683Z,32.00
2023-01-25T00:54:34.499Z,34.30
2023-01-25T00:57:01.362Z,32.17
2023-01-25T00:59:28.117Z,32.90
2023-01-25T01:01:56.039Z,34.73
2023-01-25T01:04:25.914Z,32.33
2023-01-25T01:06:53.824Z,34.27
2023-01-25T01:09:21.792Z,34.50
2023-01-25T01:11:49.039Z,31.33
2023-01-25T01:14:15.781Z,36.20
2023-01-25T01:16:42.617Z,34.47
2023-01-25T01:19:09.855Z,35.37
2023-01-25T01:21:36.532Z,36.23
2023-01-25T01:24:03.371Z,34.27
2023-01-25T01:26:30.060Z,34.57
2023-01-25T01:28:58.340Z,34.50
2023-01-25T01:31:25.481Z,30.80
2023-01-25T01:33:54.932Z,34.43
2023-01-25T01:36:23.875Z,33.97
2023-01-25T01:38:50.663Z,34.83
2023-01-25T01:41:17.764Z,34.63
2023-01-25T01:43:45.056Z,38.83
2023-01-25T01:46:30.125Z,36.73
2023-01-25T01:49:17.977Z,37.80
2023-01-25T01:51:55.750Z,38.73
2023-01-25T01:54:51.957Z,31.53
2023-01-25T01:57:25.521Z,35.57
2023-01-25T02:00:13.169Z,38.73
2023-01-25T02:02:41.487Z,39.60
2023-01-25T02:05:15.696Z,36.33
2023-01-25T02:07:43.491Z,39.73
2023-01-25T02:10:12.774Z,36.03
2023-01-25T02:12:41.227Z,34.60
2023-01-25T02:15:09.057Z,36.97
2023-01-25T02:17:38.605Z,33.60
2023-01-25T02:20:17.849Z,39.03
2023-01-25T02:22:56.584Z,38.70
2023-01-25T02:25:23.258Z,38.70
2023-01-25T02:27:55.921Z,40.17
2023-01-25T02:30:23.340Z,40.30
2023-01-25T02:32:50.221Z,38.60
2023-01-25T02:35:36.158Z,39.30
2023-01-25T02:38:03.096Z,39.67
2023-01-25T02:40:33.016Z,38.97
2023-01-25T02:42:59.644Z,40.20
2023-01-25T02:45:30.144Z,39.77
2023-01-25T02:47:57.244Z,43.10
2023-01-25T02:50:23.913Z,43.23
2023-01-25T02:52:50.581Z,39.97
2023-01-25T02:55:17.331Z,39.03
2023-01-25T02:57:44.131Z,37.57
2023-01-25T03:00:11.390Z,39.00
2023-01-25T03:02:38.114Z,39.10
2023-01-25T03:05:05.349Z,41.47
2023-01-25T03:07:32.196Z,45.40
2023-01-25T03:09:58.845Z,42.80
2023-01-25T03:12:25.534Z,40.30
2023-01-25T03:14:52.187Z,42.43
2023-01-25T03:17:18.891Z,44.10
2023-01-25T03:19:45.589Z,42.73
2023-01-25T03:22:12.289Z,40.00
2023-01-25T03:24:38.917Z,39.47
2023-01-25T03:27:11.819Z,46.83
2023-01-25T03:29:38.649Z,42.13
2023-01-25T03:32:05.567Z,42.20
2023-01-25T03:34:32.333Z,43.97
2023-01-25T03:36:59.009Z,42.57
2023-01-25T03:39:25.681Z,43.30
2023-01-25T03:41:52.356Z,43.63
2023-01-25T03:44:19.036Z,45.83
2023-01-25T03:46:45.824Z,43.30
2023-01-25T03:49:12.917Z,44.73
2023-01-25T03:51:39.559Z,45.90
2023-01-25T03:54:08.261Z,46.73
2023-01-25T03:56:35.038Z,48.63
2023-01-25T03:59:01.797Z,43.67
2023-01-25T04:01:28.430Z,49.73
2023-01-25T04:03:55.118Z,46.67
2023-01-25T04:06:21.907Z,48.80
2023-01-25T04:08:49.571Z,46.00
2023-01-25T04:11:16.209Z,47.40
2023-01-25T04:13:42.867Z,45.30
2023-01-25T04:16:12.148Z,50.27
2023-01-25T04:18:40.035Z,48.47
2023-01-25T04:21:06.788Z,47.10
2023-01-25T04:23:33.555Z,51.70
2023-01-25T04:26:06.346Z,46.00
2023-01-25T04:28:34.641Z,46.97
2023-01-25T04:31:03.480Z,50.47
2023-01-25T04:33:30.231Z,46.87
2023-01-25T04:35:57.659Z,50.70
2023-01-25T04:38:25.229Z,47.90
2023-01-25T04:40:52.579Z,48.70
2023-01-25T04:43:20.922Z,50.03
2023-01-25T04:45:48.035Z,48.93
2023-01-25T04:48:15.180Z,50.87
2023-01-25T04:50:42.957Z,49.57
2023-01-25T04:53:11.292Z,51.27
2023-01-25T04:55:38.075Z,53.27
2023-01-25T04:58:04.948Z,52.40
2023-01-25T05:00:32.398Z,50.00
2023-01-25T05:02:59.233Z,49.47
2023-01-25T05:05:26.112Z,48.90
2023-01-25T05:07:52.834Z,49.50
2023-01-25T05:10:19.595Z,47.90
2023-01-25T05:12:46.260Z,55.97
2023-01-25T05:15:13.015Z,54.07
2023-01-25T05:17:39.680Z,53.07
2023-01-25T05:20:06.663Z,55.53
2023-01-25T05:22:33.300Z,52.17
2023-01-25T05:25:01.851Z,58.37
2023-01-25T05:27:28.523Z,48.90
2023-01-25T05:29:56.115Z,52.03
2023-01-25T05:32:24.356Z,54.17
2023-01-25T05:34:51.274Z,53.60
2023-01-25T05:37:20.288Z,54.80
2023-01-25T05:39:47.246Z,57.57
2023-01-25T05:42:16.465Z,51.40
2023-01-25T05:44:46.092Z,50.30
2023-01-25T05:47:15.497Z,54.40
2023-01-25T05:49:42.193Z,48.90
2023-01-25T05:52:17.175Z,52.20
2023-01-25T05:54:43.834Z,54.03
2023-01-25T05:57:10.856Z,54.37
2023-01-25T05:59:37.521Z,53.10
2023-01-25T06:02:04.265Z,54.00
2023-01-25T06:04:30.926Z,58.43
2023-01-25T06:06:57.662Z,51.57
2023-01-25T06:09:24.476Z,48.57
2023-01-25T06:11:51.279Z,51.03
2023-01-25T06:14:18.110Z,56.50
2023-01-25T06:16:44.927Z,54.73
2023-01-25T06:19:13.936Z,52.40
2023-01-25T06:21:40.744Z,54.80
2023-01-25T06:24:08.019Z,52.07
2023-01-25T06:26:34.726Z,50.80
2023-01-25T06:29:01.366Z,52.43
2023-01-25T06:31:28.131Z,48.53
2023-01-25T06:33:54.934Z,53.97
2023-01-25T06:36:22.784Z,53.20
2023-01-25T06:38:51.034Z,52.10
2023-01-25T06:41:18.370Z,49.07
2023-01-25T06:43:45.616Z,48.07
2023-01-25T06:46:12.732Z,48.73
2023-01-25T06:48:41.062Z,49.50
2023-01-25T06:51:10.134Z,51.70
2023-01-25T06:53:39.649Z,52.00
2023-01-25T06:56:12.016Z,52.43
2023-01-25T06:58:39.287Z,50.97
2023-01-25T07:01:20.335Z,47.93
2023-01-25T07:03:52.356Z,49.43
2023-01-25T07:06:19.873Z,50.83
2023-01-25T07:08:46.889Z,50.40
2023-01-25T07:11:18.956Z,53.03
2023-01-25T07:13:46.987Z,51.23
2023-01-25T07:16:16.489Z,48.70
2023-01-25T07:18:43.583Z,51.03
2023-01-25T07:21:15.223Z,49.53
2023-01-25T07:23:42.345Z,55.37
2023-01-25T07:26:22.007Z,46.30
2023-01-25T07:28:49.274Z,54.47
2023-01-25T07:31:17.161Z,53.20
2023-01-25T07:33:44.455Z,56.70
2023-01-25T07:36:11.952Z,50.43
2023-01-25T07:38:38.816Z,51.43
2023-01-25T07:41:05.756Z,52.50
2023-01-25T07:43:32.586Z,49.20
2023-01-25T07:46:04.407Z,50.67
2023-01-25T07:48:33.176Z,48.30
2023-01-25T07:51:11.875Z,54.93
2023-01-25T07:53:40.043Z,49.33
2023-01-25T07:56:07.515Z,47.10
2023-01-25T07:58:34.618Z,54.87
2023-01-25T08:01:09.125Z,50.47
2023-01-25T08:03:35.851Z,50.83
2023-01-25T08:06:05.247Z,53.87
2023-01-25T08:08:34.492Z,56.00
2023-01-25T08:11:13.101Z,55.33
2023-01-25T08:13:41.217Z,53.57
2023-01-25T08:16:07.965Z,58.43
2023-01-25T08:18:35.992Z,54.97
2023-01-25T08:21:03.901Z,55.03
2023-01-25T08:23:30.820Z,53.80
2023-01-25T08:26:08.365Z,54.57
2023-01-25T08:28:35.812Z,58.27
2023-01-25T08:31:11.047Z,55.40
2023-01-25T08:33:38.340Z,57.87
2023-01-25T08:36:06.112Z,56.10
2023-01-25T08:38:32.897Z,57.03
2023-01-25T08:41:11.273Z,51.93
2023-01-25T08:43:38.739Z,51.90
2023-01-25T08:46:05.793Z,54.43
2023-01-25T08:48:33.068Z,57.20
2023-01-25T08:51:00.328Z,53.67
2023-01-25T08:53:31.890Z,55.70
2023-01-25T08:56:15.297Z,54.13
2023-01-25T08:58:46.904Z,54.93
2023-01-25T09:01:16.170Z,56.37
2023-01-25T09:03:44.646Z,54.47
2023-01-25T09:06:12.230Z,56.50
2023-01-25T09:08:39.489Z,60.13
2023-01-25T09:11:12.211Z,55.27
2023-01-25T09:13:40.100Z,56.40
2023-01-25T09:16:09.931Z,57.87
2023-01-25T09:18:37.759Z,60.30
2023-01-25T09:21:09.105Z,55.07
2023-01-25T09:23:44.422Z,57.30
2023-01-25T09:26:19.092Z,56.20
2023-01-25T09:28:51.215Z,58.87
2023-01-25T09:31:26.196Z,63.23
2023-01-25T09:33:53.443Z,60.10
2023-01-25T09:36:21.168Z,60.13
2023-01-25T09:38:48.533Z,64.40
2023-01-25T09:41:36.954Z,55.37
2023-01-25T09:44:24.112Z,61.50
2023-01-25T09:46:54.727Z,60.87
2023-01-25T09:50:00.646Z,59.63
2023-01-25T09:52:57.622Z,67.07
2023-01-25T09:55:27.719Z,61.87
2023-01-25T09:57:56.873Z,64.93
2023-01-25T10:00:29.858Z,58.43
2023-01-25T10:03:12.094Z,63.20
2023-01-25T10:05:45.094Z,59.17
2023-01-25T10:08:31.812Z,60.33
2023-01-25T10:11:21.365Z,60.93
2023-01-25T10:13:49.198Z,62.70
2023-01-25T10:16:27.440Z,62.00
2023-01-25T10:19:07.363Z,60.77
2023-01-25T10:21:41.038Z,65.87
2023-01-25T10:24:21.852Z,62.60
2023-01-25T10:27:09.063Z,64.83
2023-01-25T10:29:37.665Z,62.53
2023-01-25T10:32:27.942Z,63.40
2023-01-25T10:34:57.994Z,67.33
2023-01-25T10:37:34.070Z,66.20
2023-01-25T10:40:35.303Z,64.93
2023-01-25T10:43:13.143Z,59.17
2023-01-25T10:45:39.839Z,61.83
2023-01-25T10:48:15.662Z,59.70
2023-01-25T10:50:48.354Z,58.97
2023-01-25T10:53:24.897Z,66.17
2023-01-25T10:56:10.533Z,59.47
2023-01-25T10:58:37.310Z,61.40
2023-01-25T11:01:13.792Z,57.03
2023-01-25T11:03:44.877Z,64.03
2023-01-25T11:06:11.728Z,56.43
2023-01-25T11:08:43.093Z,66.30
2023-01-25T11:11:15.508Z,67.80
2023-01-25T11:13:42.767Z,66.80
2023-01-25T11:16:38.598Z,61.27
2023-01-25T11:19:31.022Z,63.63
2023-01-25T11:21:59.264Z,64.40
2023-01-25T11:24:29.925Z,67.97
2023-01-25T11:27:24.287Z,65.67
2023-01-25T11:30:12.753Z,67.47
2023-01-25T11:32:40.617Z,67.30
2023-01-25T11:35:21.641Z,58.90
2023-01-25T11:38:15.790Z,62.73
2023-01-25T11:40:46.859Z,67.37
2023-01-25T11:43:44.396Z,66.33
2023-01-25T11:46:45.012Z,65.87
2023-01-25T11:49:33.686Z,64.63
2023-01-25T11:52:33.777Z,66.77
2023-01-25T11:55:31.136Z,58.37
2023-01-25T11:58:26.903Z,61.63
2023-01-25T12:01:12.590Z,62.30
2023-01-25T12:03:54.159Z,67.27
2023-01-25T12:06:39.085Z,64.47
2023-01-25T12:09:19.531Z,69.10
2023-01-25T12:11:55.217Z,63.67
2023-01-25T12:14:24.801Z,65.80
2023-01-25T12:17:12.226Z,67.20
2023-01-25T12:20:07.440Z,71.43
2023-01-25T12:23:13.033Z,68.70
2023-01-25T12:25:45.171Z,67.83
2023-01-25T12:28:18.031Z,69.33
2023-01-25T12:31:16.963Z,73.27
2023-01-25T12:33:54.144Z,67.93
2023-01-25T12:36:45.276Z,68.80
2023-01-25T12:39:27.686Z,64.03
2023-01-25T12:42:04.554Z,63.43
2023-01-25T12:44:36.930Z,68.43
2023-01-25T12:47:29.956Z,65.33
2023-01-25T12:50:04.477Z,66.83
2023-01-25T12:52:34.752Z,71.90
2023-01-25T12:55:03.934Z,69.53
2023-01-25T12:57:36.591Z,71.97
2023-01-25T13:00:18.867Z,76.23
2023-01-25T13:03:00.857Z,69.63
2023-01-25T13:05:34.204Z,71.40
2023-01-25T13:08:30.880Z,72.30
2023-01-25T13:11:27.354Z,76.10
2023-01-25T13:14:14.351Z,68.97
2023-01-25T13:17:01.416Z,78.97
2023-01-25T13:19:36.124Z,66.47
2023-01-25T13:22:03.284Z,67.43
2023-01-25T13:25:02.159Z,67.80
2023-01-25T13:27:31.462Z,68.83
2023-01-25T13:30:25.435Z,70.67
2023-01-25T13:32:52.126Z,64.57
2023-01-25T13:35:42.536Z,64.80
2023-01-25T13:38:09.235Z,69.87
2023-01-25T13:40:40.243Z,71.37
2023-01-25T13:43:13.097Z,66.07
2023-01-25T13:45:42.003Z,66.13
2023-01-25T13:48:08.903Z,64.00
2023-01-25T13:50:40.053Z,73.53
2023-01-25T13:53:20.263Z,66.67
2023-01-25T13:55:55.805Z,66.00
2023-01-25T13:58:28.333Z,62.60
2023-01-25T14:01:06.908Z,65.37
2023-01-25T14:03:45.878Z,63.93
2023-01-25T14:06:30.979Z,65.00
2023-01-25T14:09:01.495Z,65.87
2023-01-25T14:11:30.898Z,74.63
2023-01-25T14:14:16.385Z,67.20
2023-01-25T14:16:43.588Z,71.93
2023-01-25T14:19:29.508Z,67.50
2023-01-25T14:22:20.677Z,70.13
2023-01-25T14:25:15.532Z,64.47
2023-01-25T14:27:54.935Z,73.13
2023-01-25T14:30:31.086Z,68.47
2023-01-25T14:33:20.962Z,68.70
2023-01-25T14:35:55.089Z,64.77
2023-01-25T14:38:26.973Z,69.33
2023-01-25T14:41:22.329Z,73.70
2023-01-25T14:43:53.067Z,65.13
2023-01-25T14:46:29.760Z,63.77
2023-01-25T14:49:11.632Z,68.70
2023-01-25T14:51:51.424Z,67.30
2023-01-25T14:54:22.558Z,72.83
2023-01-25T14:56:53.461Z,69.37
2023-01-25T14:59:47.838Z,70.13
2023-01-25T15:02:30.663Z,81.10
2023-01-25T15:05:20.697Z,76.37
2023-01-25T15:07:51.559Z,77.17
2023-01-25T15:10:30.341Z,73.20
2023-01-25T15:13:07.667Z,73.27
2023-01-25T15:15:57.701Z,75.67
2023-01-25T15:18:46.602Z,67.50
2023-01-25T15:21:23.741Z,73.80
2023-01-25T15:23:51.446Z,69.53
2023-01-25T15:26:29.613Z,71.23
2023-01-25T15:29:02.144Z,71.57
2023-01-25T15:31:37.547Z,75.00
2023-01-25T15:34:04.597Z,74.27
2023-01-25T15:36:32.576Z,70.83
2023-01-25T15:38:59.834Z,71.47
2023-01-25T15:41:26.556Z,67.20
2023-01-25T15:43:53.345Z,61.20
2023-01-25T15:46:26.817Z,67.17
2023-01-25T15:48:54.427Z,68.07
2023-01-25T15:51:21.581Z,64.53
2023-01-25T15:53:48.494Z,70.03
2023-01-25T15:56:24.936Z,65.30
2023-01-25T15:59:00.351Z,68.37
2023-01-25T16:01:30.016Z,72.43
2023-01-25T16:03:58.443Z,68.03
2023-01-25T16:06:32.277Z,74.10
2023-01-25T16:09:11.444Z,76.33
2023-01-25T16:11:38.240Z,73.97
2023-01-25T16:14:04.935Z,69.73
2023-01-25T16:16:42.878Z,70.20
2023-01-25T16:19:14.113Z,73.70
2023-01-25T16:21:42.102Z,72.40
2023-01-25T16:24:10.270Z,74.93
2023-01-25T16:26:40.475Z,72.97
2023-01-25T16:29:07.268Z,77.93
2023-01-25T16:31:34.446Z,79.90
2023-01-25T16:34:01.922Z,82.97
2023-01-25T16:36:29.726Z,83.80
2023-01-25T16:38:56.472Z,82.43
2023-01-25T16:41:23.171Z,77.43
2023-01-25T16:43:50.009Z,77.87
2023-01-25T16:46:18.053Z,68.20
2023-01-25T16:48:46.438Z,81.33
2023-01-25T16:51:20.380Z,70.27
2023-01-25T16:53:48.426Z,78.83
2023-01-25T16:56:20.496Z,81.20
2023-01-25T16:58:48.123Z,75.03
2023-01-25T17:01:16.541Z,81.50
2023-01-25T17:03:43.717Z,83.60
2023-01-25T17:06:22.606Z,77.27
2023-01-25T17:08:49.724Z,74.03
2023-01-25T17:11:18.883Z,82.50
2023-01-25T17:13:53.730Z,79.63
2023-01-25T17:16:22.203Z,77.60
2023-01-25T17:18:53.563Z,85.20
2023-01-25T17:21:21.105Z,74.30
2023-01-25T17:23:48.348Z,76.77
2023-01-25T17:26:17.371Z,78.13
2023-01-25T17:28:45.045Z,84.93
2023-01-25T17:31:32.739Z,80.10
2023-01-25T17:34:06.202Z,74.13
2023-01-25T17:36:32.922Z,95.17
2023-01-25T17:39:06.577Z,100.17
2023-01-25T17:41:33.327Z,85.47
2023-01-25T17:44:00.102Z,84.40
2023-01-25T17:46:30.071Z,82.97
2023-01-25T17:48:57.892Z,84.47
2023-01-25T17:51:25.248Z,88.53
2023-01-25T17:53:52.741Z,85.03
2023-01-25T17:56:20.525Z,90.13
2023-01-25T17:58:47.851Z,90.53
2023-01-25T18:01:18.708Z,88.80
2023-01-25T18:03:46.699Z,96.80
2023-01-25T18:06:16.970Z,96.33
2023-01-25T18:08:46.083Z,90.33
2023-01-25T18:11:15.507Z,77.83
2023-01-25T18:13:50.246Z,87.83
2023-01-25T18:16:19.174Z,97.40
2023-01-25T18:18:47.081Z,91.83
2023-01-25T18:21:16.563Z,83.80
2023-01-25T18:23:47.136Z,98.47
2023-01-25T18:26:25.833Z,99.13
2023-01-25T18:28:59.439Z,93.60
2023-01-25T18:31:26.570Z,96.60
2023-01-25T18:33:53.453Z,93.10
2023-01-25T18:36:20.511Z,101.27
2023-01-25T18:38:47.230Z,99.73
2023-01-25T18:41:13.936Z,91.07
2023-01-25T18:43:40.674Z,95.73
2023-01-25T18:46:07.616Z,100.90
2023-01-25T18:48:34.483Z,96.70
2023-01-25T18:51:07.008Z,114.63
2023-01-25T18:53:36.055Z,101.17
2023-01-25T18:56:07.268Z,112.65
2023-01-25T18:58:36.327Z,117.35
2023-01-25T19:01:16.642Z,95.87
2023-01-25T19:03:44.404Z,95.57
2023-01-25T19:06:11.474Z,97.70
2023-01-25T19:08:43.151Z,92.70
2023-01-25T19:11:12.818Z,99.97
2023-01-25T19:13:40.659Z,96.47
2023-01-25T19:16:19.686Z,96.37
2023-01-25T19:18:49.682Z,97.60
2023-01-25T19:21:18.716Z,93.27
2023-01-25T19:23:45.735Z,96.93
2023-01-25T19:26:15.070Z,97.37
2023-01-25T19:28:42.711Z,96.13
2023-01-25T19:31:12.495Z,93.07
2023-01-25T19:33:39.546Z,97.03
2023-01-25T19:36:09.119Z,102.60
2023-01-25T19:38:40.166Z,96.30
2023-01-25T19:41:12.481Z,111.83
2023-01-25T19:43:41.563Z,105.47
2023-01-25T19:46:20.139Z,110.10
2023-01-25T19:48:50.039Z,112.83
2023-01-25T19:51:22.683Z,107.40
2023-01-25T19:54:00.722Z,116.13
2023-01-25T19:56:28.622Z,104.50
2023-01-25T19:58:55.314Z,110.97
2023-01-25T20:01:24.524Z,108.80
2023-01-25T20:03:51.798Z,114.70
2023-01-25T20:06:20.708Z,105.07
2023-01-25T20:08:48.225Z,109.90
2023-01-25T20:11:23.225Z,109.63
2023-01-25T20:13:52.087Z,108.17
2023-01-25T20:16:19.448Z,102.73
2023-01-25T20:18:47.638Z,109.13
2023-01-25T20:21:16.915Z,106.97
2023-01-25T20:23:46.274Z,91.87
2023-01-25T20:26:19.354Z,110.30
2023-01-25T20:28:55.308Z,101.37
2023-01-25T20:31:26.460Z,117.80
2023-01-25T20:33:55.811Z,122.20
2023-01-25T20:36:23.379Z,113.70
2023-01-25T20:38:50.175Z,111.73
2023-01-25T20:41:18.509Z,112.37
2023-01-25T20:43:53.629Z,117.43
2023-01-25T20:46:21.879Z,114.20
2023-01-25T20:48:48.667Z,113.60
2023-01-25T20:51:17.106Z,121.03
2023-01-25T20:53:48.327Z,115.83
2023-01-25T20:56:16.745Z,133.93
2023-01-25T20:58:50.111Z,128.70
2023-01-25T21:01:22.145Z,135.73
2023-01-25T21:03:49.251Z,125.80
2023-01-25T21:06:16.988Z,129.77
2023-01-25T21:08:44.065Z,124.67
2023-01-25T21:11:11.645Z,122.83
2023-01-25T21:13:38.351Z,126.83
2023-01-25T21:16:17.797Z,133.37
2023-01-25T21:18:56.281Z,129.13
2023-01-25T21:21:25.875Z,129.30
2023-01-25T21:23:53.158Z,129.90
2023-01-25T21:26:22.309Z,141.93
2023-01-25T21:28:49.442Z,134.03
2023-01-25T21:31:25.386Z,145.97
2023-01-25T21:33:53.219Z,146.73
2023-01-25T21:36:20.020Z,197.32
2023-01-25T21:38:49.227Z,160.27
2023-01-25T21:41:21.446Z,149.50
2023-01-25T21:44:07.613Z,136.63
2023-01-25T21:46:35.032Z,137.67
2023-01-25T21:49:25.200Z,136.53
2023-01-25T21:51:54.459Z,138.80
2023-01-25T21:54:32.620Z,129.90
2023-01-25T21:57:01.068Z,143.00
2023-01-25T21:59:28.239Z,136.80
2023-01-25T22:01:55.857Z,130.87
2023-01-25T22:04:24.360Z,142.03
2023-01-25T22:06:54.666Z,149.57
2023-01-25T22:09:22.672Z,140.83
2023-01-25T22:11:50.746Z,151.23
2023-01-25T22:14:23.192Z,137.70
2023-01-25T22:16:50.972Z,134.57
2023-01-25T22:19:17.943Z,145.67
2023-01-25T22:21:45.221Z,129.17
2023-01-25T22:24:12.415Z,146.40
2023-01-25T22:26:45.241Z,145.73
2023-01-25T22:29:12.962Z,140.90
2023-01-25T22:31:39.989Z,142.87
2023-01-25T22:34:07.168Z,142.93
2023-01-25T22:36:34.184Z,142.50
2023-01-25T22:39:00.954Z,133.70
2023-01-25T22:41:30.046Z,129.23
2023-01-25T22:43:57.836Z,132.53
2023-01-25T22:46:28.887Z,127.50
2023-01-25T22:48:57.250Z,126.53
2023-01-25T22:51:26.575Z,130.57
2023-01-25T22:53:54.749Z,128.10
2023-01-25T22:56:26.858Z,129.07
2023-01-25T22:58:53.562Z,118.30
2023-01-25T23:01:23.566Z,116.27
2023-01-25T23:03:50.957Z,128.20
2023-01-25T23:06:20.989Z,131.37
2023-01-25T23:08:48.402Z,138.57
2023-01-25T23:11:19.886Z,120.53
2023-01-25T23:14:07.587Z,122.13
2023-01-25T23:16:37.648Z,132.60
2023-01-25T23:19:05.382Z,127.23
2023-01-25T23:21:32.245Z,146.07
2023-01-25T23:24:03.317Z,136.73
2023-01-25T23:26:38.966Z,121.70
2023-01-25T23:29:09.160Z,132.60
2023-01-25T23:31:36.142Z,130.43
2023-01-25T23:34:04.977Z,137.10
2023-01-25T23:36:34.499Z,125.20
2023-01-25T23:39:01.727Z,134.77
2023-01-25T23:41:30.098Z,134.97
2023-01-25T23:43:57.812Z,120.87
2023-01-25T23:46:25.622Z,123.63
2023-01-25T23:48:52.410Z,123.70
2023-01-25T23:51:20.202Z,124.17
2023-01-25T23:53:47.420Z,126.13
2023-01-25T23:56:19.713Z,123.40
2023-01-25T23:58:47.583Z,128.43
